sensor_id;sensor_type;location;lat;lon;timestamp;P1;durP1;ratioP1;P2;durP2;ratioP2
26820;SDS011;37186;51.394;5.454;2023-08-12T00:01:44;5.78;;;5.60;;
26820;SDS011;37186;51.394;5.454;2023-08-12T00:04:45;6.28;;;6.07;;
26820;SDS011;37186;51.394;5.454;2023-08-12T00:07:47;6.90;;;6.70;;
26820;SDS011;37186;51.394;5.454;2023-08-12T00:10:48;6.35;;;6.15;;
26820;SDS011;37186;51.394;5.454;2023-08-12T00:13:49;6.45;;;6.25;;
26820;SDS011;37186;51.394;5.454;2023-08-12T00:16:49;6.40;;;6.20;;
26820;SDS011;37186;51.394;5.454;2023-08-12T00:19:50;6.40;;;6.20;;
26820;SDS011;37186;51.394;5.454;2023-08-12T00:22:51;6.00;;;5.80;;
26820;SDS011;37186;51.394;5.454;2023-08-12T00:25:51;5.90;;;5.72;;
26820;SDS011;37186;51.394;5.454;2023-08-12T00:28:52;5.80;;;5.65;;
26820;SDS011;37186;51.394;5.454;2023-08-12T00:31:52;5.90;;;5.70;;
26820;SDS011;37186;51.394;5.454;2023-08-12T00:34:53;5.50;;;5.40;;
26820;SDS011;37186;51.394;5.454;2023-08-12T00:37:53;5.97;;;5.80;;
26820;SDS011;37186;51.394;5.454;2023-08-12T00:40:54;5.78;;;5.63;;
26820;SDS011;37186;51.394;5.454;2023-08-12T00:43:55;5.60;;;5.47;;
26820;SDS011;37186;51.394;5.454;2023-08-12T00:46:55;5.10;;;5.00;;
26820;SDS011;37186;51.394;5.454;2023-08-12T00:49:56;5.35;;;5.25;;
26820;SDS011;37186;51.394;5.454;2023-08-12T00:52:58;4.93;;;4.82;;
26820;SDS011;37186;51.394;5.454;2023-08-12T00:55:59;5.07;;;4.97;;
26820;SDS011;37186;51.394;5.454;2023-08-12T00:59:00;4.75;;;4.65;;
26820;SDS011;37186;51.394;5.454;2023-08-12T01:02:04;5.03;;;4.93;;
26820;SDS011;37186;51.394;5.454;2023-08-12T01:05:05;5.13;;;5.03;;
26820;SDS011;37186;51.394;5.454;2023-08-12T01:08:06;4.95;;;4.85;;
26820;SDS011;37186;51.394;5.454;2023-08-12T01:11:10;4.43;;;4.32;;
26820;SDS011;37186;51.394;5.454;2023-08-12T01:17:27;4.55;;;4.45;;
26820;SDS011;37186;51.394;5.454;2023-08-12T01:20:29;4.50;;;4.40;;
26820;SDS011;37186;51.394;5.454;2023-08-12T01:23:30;4.63;;;4.53;;
26820;SDS011;37186;51.394;5.454;2023-08-12T01:26:32;4.63;;;4.53;;
26820;SDS011;37186;51.394;5.454;2023-08-12T01:29:33;4.50;;;4.40;;
26820;SDS011;37186;51.394;5.454;2023-08-12T01:36:08;4.50;;;4.40;;
26820;SDS011;37186;51.394;5.454;2023-08-12T01:39:15;4.20;;;4.10;;
26820;SDS011;37186;51.394;5.454;2023-08-12T01:42:18;4.13;;;4.03;;
26820;SDS011;37186;51.394;5.454;2023-08-12T01:45:19;4.20;;;4.10;;
26820;SDS011;37186;51.394;5.454;2023-08-12T01:48:20;4.40;;;4.30;;
26820;SDS011;37186;51.394;5.454;2023-08-12T01:51:23;4.20;;;4.10;;
26820;SDS011;37186;51.394;5.454;2023-08-12T01:54:23;4.20;;;4.10;;
26820;SDS011;37186;51.394;5.454;2023-08-12T01:57:24;4.13;;;4.03;;
26820;SDS011;37186;51.394;5.454;2023-08-12T02:00:24;4.20;;;4.10;;
26820;SDS011;37186;51.394;5.454;2023-08-12T02:03:25;4.40;;;4.30;;
26820;SDS011;37186;51.394;5.454;2023-08-12T02:06:25;4.18;;;4.07;;
26820;SDS011;37186;51.394;5.454;2023-08-12T02:09:26;4.20;;;4.10;;
26820;SDS011;37186;51.394;5.454;2023-08-12T02:12:27;4.40;;;4.30;;
26820;SDS011;37186;51.394;5.454;2023-08-12T02:15:27;4.10;;;4.00;;
26820;SDS011;37186;51.394;5.454;2023-08-12T02:18:28;4.20;;;4.10;;
26820;SDS011;37186;51.394;5.454;2023-08-12T02:21:28;4.00;;;3.90;;
26820;SDS011;37186;51.394;5.454;2023-08-12T02:24:29;4.00;;;3.90;;
26820;SDS011;37186;51.394;5.454;2023-08-12T02:27:30;4.10;;;4.00;;
26820;SDS011;37186;51.394;5.454;2023-08-12T02:30:30;4.07;;;3.97;;
26820;SDS011;37186;51.394;5.454;2023-08-12T02:33:31;4.10;;;4.00;;
26820;SDS011;37186;51.394;5.454;2023-08-12T02:36:31;4.00;;;3.90;;
26820;SDS011;37186;51.394;5.454;2023-08-12T02:39:32;3.92;;;3.83;;
26820;SDS011;37186;51.394;5.454;2023-08-12T02:42:33;4.00;;;3.90;;
26820;SDS011;37186;51.394;5.454;2023-08-12T02:45:33;4.00;;;3.90;;
26820;SDS011;37186;51.394;5.454;2023-08-12T02:48:35;4.30;;;4.20;;
26820;SDS011;37186;51.394;5.454;2023-08-12T02:51:36;3.80;;;3.70;;
26820;SDS011;37186;51.394;5.454;2023-08-12T02:54:36;3.92;;;3.83;;
26820;SDS011;37186;51.394;5.454;2023-08-12T02:57:37;4.03;;;3.92;;
26820;SDS011;37186;51.394;5.454;2023-08-12T03:00:40;4.03;;;3.92;;
26820;SDS011;37186;51.394;5.454;2023-08-12T03:03:43;3.95;;;3.85;;
26820;SDS011;37186;51.394;5.454;2023-08-12T03:06:44;3.80;;;3.70;;
26820;SDS011;37186;51.394;5.454;2023-08-12T03:09:44;3.80;;;3.70;;
26820;SDS011;37186;51.394;5.454;2023-08-12T03:12:45;3.63;;;3.53;;
26820;SDS011;37186;51.394;5.454;2023-08-12T03:15:45;3.90;;;3.80;;
26820;SDS011;37186;51.394;5.454;2023-08-12T03:18:46;4.00;;;3.90;;
26820;SDS011;37186;51.394;5.454;2023-08-12T03:21:46;3.95;;;3.85;;
26820;SDS011;37186;51.394;5.454;2023-08-12T03:24:47;3.78;;;3.67;;
26820;SDS011;37186;51.394;5.454;2023-08-12T03:27:48;3.97;;;3.88;;
26820;SDS011;37186;51.394;5.454;2023-08-12T03:30:50;4.00;;;3.90;;
26820;SDS011;37186;51.394;5.454;2023-08-12T03:33:51;3.85;;;3.75;;
26820;SDS011;37186;51.394;5.454;2023-08-12T03:36:51;3.83;;;3.72;;
26820;SDS011;37186;51.394;5.454;2023-08-12T03:39:52;3.80;;;3.70;;
26820;SDS011;37186;51.394;5.454;2023-08-12T03:42:53;3.90;;;3.80;;
26820;SDS011;37186;51.394;5.454;2023-08-12T03:45:53;3.85;;;3.75;;
26820;SDS011;37186;51.394;5.454;2023-08-12T03:48:54;3.90;;;3.80;;
26820;SDS011;37186;51.394;5.454;2023-08-12T03:51:54;3.85;;;3.75;;
26820;SDS011;37186;51.394;5.454;2023-08-12T03:54:55;3.97;;;3.88;;
26820;SDS011;37186;51.394;5.454;2023-08-12T03:57:55;4.05;;;3.95;;
26820;SDS011;37186;51.394;5.454;2023-08-12T04:00:56;4.15;;;4.05;;
26820;SDS011;37186;51.394;5.454;2023-08-12T04:03:57;4.25;;;4.15;;
26820;SDS011;37186;51.394;5.454;2023-08-12T04:06:57;4.10;;;4.00;;
26820;SDS011;37186;51.394;5.454;2023-08-12T04:09:58;4.35;;;4.25;;
26820;SDS011;37186;51.394;5.454;2023-08-12T04:12:58;3.97;;;3.88;;
26820;SDS011;37186;51.394;5.454;2023-08-12T04:15:59;4.15;;;4.05;;
26820;SDS011;37186;51.394;5.454;2023-08-12T04:19:00;4.53;;;4.43;;
26820;SDS011;37186;51.394;5.454;2023-08-12T04:22:00;4.65;;;4.55;;
26820;SDS011;37186;51.394;5.454;2023-08-12T04:25:01;4.60;;;4.50;;
26820;SDS011;37186;51.394;5.454;2023-08-12T04:28:02;4.85;;;4.75;;
26820;SDS011;37186;51.394;5.454;2023-08-12T04:31:05;4.68;;;4.57;;
26820;SDS011;37186;51.394;5.454;2023-08-12T04:34:07;4.85;;;4.75;;
26820;SDS011;37186;51.394;5.454;2023-08-12T04:37:08;5.13;;;5.03;;
26820;SDS011;37186;51.394;5.454;2023-08-12T04:40:08;5.22;;;5.13;;
26820;SDS011;37186;51.394;5.454;2023-08-12T04:43:09;4.82;;;4.72;;
26820;SDS011;37186;51.394;5.454;2023-08-12T04:46:11;5.35;;;5.25;;
26820;SDS011;37186;51.394;5.454;2023-08-12T04:49:11;5.45;;;5.35;;
26820;SDS011;37186;51.394;5.454;2023-08-12T04:52:12;5.43;;;5.32;;
26820;SDS011;37186;51.394;5.454;2023-08-12T04:55:12;5.03;;;4.93;;
26820;SDS011;37186;51.394;5.454;2023-08-12T04:58:13;5.07;;;4.97;;
26820;SDS011;37186;51.394;5.454;2023-08-12T05:01:14;4.90;;;4.80;;
26820;SDS011;37186;51.394;5.454;2023-08-12T05:04:14;5.30;;;5.20;;
26820;SDS011;37186;51.394;5.454;2023-08-12T05:07:15;4.88;;;4.78;;
26820;SDS011;37186;51.394;5.454;2023-08-12T05:10:16;5.22;;;5.13;;
26820;SDS011;37186;51.394;5.454;2023-08-12T05:13:17;4.80;;;4.70;;
26820;SDS011;37186;51.394;5.454;2023-08-12T05:16:17;4.18;;;4.07;;
26820;SDS011;37186;51.394;5.454;2023-08-12T05:19:18;4.55;;;4.45;;
26820;SDS011;37186;51.394;5.454;2023-08-12T05:22:18;3.90;;;3.80;;
26820;SDS011;37186;51.394;5.454;2023-08-12T05:25:19;4.30;;;4.20;;
26820;SDS011;37186;51.394;5.454;2023-08-12T05:28:19;3.78;;;3.67;;
26820;SDS011;37186;51.394;5.454;2023-08-12T05:31:20;3.90;;;3.80;;
26820;SDS011;37186;51.394;5.454;2023-08-12T05:34:21;3.85;;;3.75;;
26820;SDS011;37186;51.394;5.454;2023-08-12T05:37:21;3.88;;;3.78;;
26820;SDS011;37186;51.394;5.454;2023-08-12T05:40:22;3.63;;;3.53;;
26820;SDS011;37186;51.394;5.454;2023-08-12T05:43:22;3.67;;;3.58;;
26820;SDS011;37186;51.394;5.454;2023-08-12T05:46:23;3.58;;;3.47;;
26820;SDS011;37186;51.394;5.454;2023-08-12T05:49:23;3.47;;;3.38;;
26820;SDS011;37186;51.394;5.454;2023-08-12T05:52:24;3.35;;;3.25;;
26820;SDS011;37186;51.394;5.454;2023-08-12T05:55:24;3.38;;;3.28;;
26820;SDS011;37186;51.394;5.454;2023-08-12T05:58:25;3.35;;;3.25;;
26820;SDS011;37186;51.394;5.454;2023-08-12T06:01:25;3.38;;;3.28;;
26820;SDS011;37186;51.394;5.454;2023-08-12T06:04:26;3.47;;;3.38;;
26820;SDS011;37186;51.394;5.454;2023-08-12T06:07:27;3.25;;;3.15;;
26820;SDS011;37186;51.394;5.454;2023-08-12T06:10:27;3.53;;;3.42;;
26820;SDS011;37186;51.394;5.454;2023-08-12T06:13:28;3.40;;;3.30;;
26820;SDS011;37186;51.394;5.454;2023-08-12T06:16:28;3.20;;;3.10;;
26820;SDS011;37186;51.394;5.454;2023-08-12T06:19:29;3.45;;;3.35;;
26820;SDS011;37186;51.394;5.454;2023-08-12T06:22:29;3.53;;;3.42;;
26820;SDS011;37186;51.394;5.454;2023-08-12T06:25:30;3.53;;;3.42;;
26820;SDS011;37186;51.394;5.454;2023-08-12T06:28:30;3.60;;;3.50;;
26820;SDS011;37186;51.394;5.454;2023-08-12T06:31:31;3.60;;;3.50;;
26820;SDS011;37186;51.394;5.454;2023-08-12T06:34:31;3.78;;;3.67;;
26820;SDS011;37186;51.394;5.454;2023-08-12T06:37:32;3.67;;;3.58;;
26820;SDS011;37186;51.394;5.454;2023-08-12T06:40:33;4.03;;;3.92;;
26820;SDS011;37186;51.394;5.454;2023-08-12T06:43:33;4.07;;;3.97;;
26820;SDS011;37186;51.394;5.454;2023-08-12T06:46:35;3.80;;;3.70;;
26820;SDS011;37186;51.394;5.454;2023-08-12T06:49:35;3.95;;;3.85;;
26820;SDS011;37186;51.394;5.454;2023-08-12T06:52:36;3.60;;;3.50;;
26820;SDS011;37186;51.394;5.454;2023-08-12T06:55:42;4.00;;;3.90;;
26820;SDS011;37186;51.394;5.454;2023-08-12T06:58:44;3.95;;;3.85;;
26820;SDS011;37186;51.394;5.454;2023-08-12T07:01:44;3.90;;;3.80;;
26820;SDS011;37186;51.394;5.454;2023-08-12T07:04:45;3.88;;;3.78;;
26820;SDS011;37186;51.394;5.454;2023-08-12T07:07:46;3.90;;;3.80;;
26820;SDS011;37186;51.394;5.454;2023-08-12T07:10:46;3.90;;;3.80;;
26820;SDS011;37186;51.394;5.454;2023-08-12T07:13:47;4.18;;;4.07;;
26820;SDS011;37186;51.394;5.454;2023-08-12T07:16:47;4.20;;;4.10;;
26820;SDS011;37186;51.394;5.454;2023-08-12T07:19:48;4.63;;;4.53;;
26820;SDS011;37186;51.394;5.454;2023-08-12T07:22:48;4.68;;;4.57;;
26820;SDS011;37186;51.394;5.454;2023-08-12T07:25:49;4.38;;;4.28;;
26820;SDS011;37186;51.394;5.454;2023-08-12T07:28:49;4.55;;;4.45;;
26820;SDS011;37186;51.394;5.454;2023-08-12T07:31:51;5.40;;;5.30;;
26820;SDS011;37186;51.394;5.454;2023-08-12T07:34:52;5.20;;;5.10;;
26820;SDS011;37186;51.394;5.454;2023-08-12T07:37:53;5.05;;;4.95;;
26820;SDS011;37186;51.394;5.454;2023-08-12T07:40:53;5.68;;;5.55;;
26820;SDS011;37186;51.394;5.454;2023-08-12T07:43:54;5.05;;;4.95;;
26820;SDS011;37186;51.394;5.454;2023-08-12T07:46:55;5.25;;;5.15;;
26820;SDS011;37186;51.394;5.454;2023-08-12T07:49:55;5.15;;;5.05;;
26820;SDS011;37186;51.394;5.454;2023-08-12T07:52:56;4.63;;;4.53;;
26820;SDS011;37186;51.394;5.454;2023-08-12T07:55:56;4.63;;;4.53;;
26820;SDS011;37186;51.394;5.454;2023-08-12T07:58:57;4.80;;;4.70;;
26820;SDS011;37186;51.394;5.454;2023-08-12T08:01:57;4.28;;;4.18;;
26820;SDS011;37186;51.394;5.454;2023-08-12T08:04:58;4.70;;;4.60;;
26820;SDS011;37186;51.394;5.454;2023-08-12T08:07:59;4.85;;;4.75;;
26820;SDS011;37186;51.394;5.454;2023-08-12T08:10:59;4.90;;;4.80;;
26820;SDS011;37186;51.394;5.454;2023-08-12T08:14:00;4.40;;;4.30;;
26820;SDS011;37186;51.394;5.454;2023-08-12T08:17:00;4.40;;;4.30;;
26820;SDS011;37186;51.394;5.454;2023-08-12T08:20:01;4.13;;;4.03;;
26820;SDS011;37186;51.394;5.454;2023-08-12T08:23:03;4.00;;;3.90;;
26820;SDS011;37186;51.394;5.454;2023-08-12T08:26:03;3.83;;;3.72;;
26820;SDS011;37186;51.394;5.454;2023-08-12T08:29:04;4.10;;;4.00;;
26820;SDS011;37186;51.394;5.454;2023-08-12T08:32:05;3.60;;;3.50;;
26820;SDS011;37186;51.394;5.454;2023-08-12T08:35:06;3.40;;;3.30;;
26820;SDS011;37186;51.394;5.454;2023-08-12T08:38:06;3.70;;;3.60;;
26820;SDS011;37186;51.394;5.454;2023-08-12T08:41:07;4.32;;;4.22;;
26820;SDS011;37186;51.394;5.454;2023-08-12T08:44:10;4.00;;;3.90;;
26820;SDS011;37186;51.394;5.454;2023-08-12T08:47:13;4.43;;;4.32;;
26820;SDS011;37186;51.394;5.454;2023-08-12T08:50:16;4.18;;;4.07;;
26820;SDS011;37186;51.394;5.454;2023-08-12T08:53:17;4.45;;;4.35;;
26820;SDS011;37186;51.394;5.454;2023-08-12T08:56:18;3.70;;;3.60;;
26820;SDS011;37186;51.394;5.454;2023-08-12T08:59:19;3.40;;;3.30;;
26820;SDS011;37186;51.394;5.454;2023-08-12T09:02:21;3.38;;;3.28;;
26820;SDS011;37186;51.394;5.454;2023-08-12T09:05:23;3.38;;;3.28;;
26820;SDS011;37186;51.394;5.454;2023-08-12T09:08:25;3.20;;;3.10;;
26820;SDS011;37186;51.394;5.454;2023-08-12T09:11:27;3.10;;;3.00;;
26820;SDS011;37186;51.394;5.454;2023-08-12T09:14:28;3.00;;;2.90;;
26820;SDS011;37186;51.394;5.454;2023-08-12T09:17:29;2.90;;;2.80;;
26820;SDS011;37186;51.394;5.454;2023-08-12T09:20:32;3.67;;;3.58;;
26820;SDS011;37186;51.394;5.454;2023-08-12T09:23:34;3.90;;;3.80;;
26820;SDS011;37186;51.394;5.454;2023-08-12T09:26:37;4.10;;;4.00;;
26820;SDS011;37186;51.394;5.454;2023-08-12T09:29:38;4.63;;;4.53;;
26820;SDS011;37186;51.394;5.454;2023-08-12T09:32:38;4.32;;;4.22;;
26820;SDS011;37186;51.394;5.454;2023-08-12T09:35:42;3.72;;;3.63;;
26820;SDS011;37186;51.394;5.454;2023-08-12T09:38:44;3.40;;;3.30;;
26820;SDS011;37186;51.394;5.454;2023-08-12T09:41:45;3.50;;;3.40;;
26820;SDS011;37186;51.394;5.454;2023-08-12T09:44:45;3.38;;;3.28;;
26820;SDS011;37186;51.394;5.454;2023-08-12T09:47:46;3.65;;;3.55;;
26820;SDS011;37186;51.394;5.454;2023-08-12T09:50:47;3.60;;;3.50;;
26820;SDS011;37186;51.394;5.454;2023-08-12T09:53:49;3.35;;;3.25;;
26820;SDS011;37186;51.394;5.454;2023-08-12T09:56:54;3.58;;;3.47;;
26820;SDS011;37186;51.394;5.454;2023-08-12T09:59:57;3.80;;;3.70;;
26820;SDS011;37186;51.394;5.454;2023-08-12T10:02:57;3.60;;;3.50;;
26820;SDS011;37186;51.394;5.454;2023-08-12T10:05:59;3.60;;;3.50;;
26820;SDS011;37186;51.394;5.454;2023-08-12T10:09:01;3.53;;;3.42;;
26820;SDS011;37186;51.394;5.454;2023-08-12T10:12:02;3.72;;;3.63;;
26820;SDS011;37186;51.394;5.454;2023-08-12T10:15:03;3.67;;;3.58;;
26820;SDS011;37186;51.394;5.454;2023-08-12T10:18:06;3.90;;;3.80;;
26820;SDS011;37186;51.394;5.454;2023-08-12T10:21:09;4.00;;;3.90;;
26820;SDS011;37186;51.394;5.454;2023-08-12T10:24:11;3.80;;;3.70;;
26820;SDS011;37186;51.394;5.454;2023-08-12T10:27:16;3.97;;;3.88;;
26820;SDS011;37186;51.394;5.454;2023-08-12T10:30:20;4.07;;;3.97;;
26820;SDS011;37186;51.394;5.454;2023-08-12T10:33:20;4.22;;;4.13;;
26820;SDS011;37186;51.394;5.454;2023-08-12T10:36:21;4.10;;;4.00;;
26820;SDS011;37186;51.394;5.454;2023-08-12T10:39:24;3.88;;;3.78;;
26820;SDS011;37186;51.394;5.454;2023-08-12T10:42:45;3.97;;;3.88;;
26820;SDS011;37186;51.394;5.454;2023-08-12T10:45:47;3.78;;;3.67;;
26820;SDS011;37186;51.394;5.454;2023-08-12T10:49:02;3.80;;;3.70;;
26820;SDS011;37186;51.394;5.454;2023-08-12T10:52:04;3.33;;;3.22;;
26820;SDS011;37186;51.394;5.454;2023-08-12T10:58:24;3.40;;;3.30;;
26820;SDS011;37186;51.394;5.454;2023-08-12T11:01:28;3.60;;;3.50;;
26820;SDS011;37186;51.394;5.454;2023-08-12T11:04:36;4.05;;;3.95;;
26820;SDS011;37186;51.394;5.454;2023-08-12T11:10:38;4.53;;;4.43;;
26820;SDS011;37186;51.394;5.454;2023-08-12T11:13:55;3.70;;;3.60;;
26820;SDS011;37186;51.394;5.454;2023-08-12T11:16:56;3.40;;;3.30;;
26820;SDS011;37186;51.394;5.454;2023-08-12T11:19:57;3.60;;;3.50;;
26820;SDS011;37186;51.394;5.454;2023-08-12T11:22:59;3.50;;;3.40;;
26820;SDS011;37186;51.394;5.454;2023-08-12T11:26:01;3.33;;;3.22;;
26820;SDS011;37186;51.394;5.454;2023-08-12T11:29:07;3.20;;;3.10;;
26820;SDS011;37186;51.394;5.454;2023-08-12T11:32:09;3.35;;;3.25;;
26820;SDS011;37186;51.394;5.454;2023-08-12T11:35:10;3.22;;;3.13;;
26820;SDS011;37186;51.394;5.454;2023-08-12T11:38:11;3.30;;;3.20;;
26820;SDS011;37186;51.394;5.454;2023-08-12T11:41:12;3.40;;;3.30;;
26820;SDS011;37186;51.394;5.454;2023-08-12T11:44:16;3.85;;;3.75;;
26820;SDS011;37186;51.394;5.454;2023-08-12T11:47:21;3.60;;;3.50;;
26820;SDS011;37186;51.394;5.454;2023-08-12T11:50:25;3.30;;;3.20;;
26820;SDS011;37186;51.394;5.454;2023-08-12T11:53:26;3.50;;;3.40;;
26820;SDS011;37186;51.394;5.454;2023-08-12T11:56:27;3.50;;;3.40;;
26820;SDS011;37186;51.394;5.454;2023-08-12T11:59:28;3.72;;;3.63;;
26820;SDS011;37186;51.394;5.454;2023-08-12T12:02:28;3.60;;;3.50;;
26820;SDS011;37186;51.394;5.454;2023-08-12T12:05:29;3.60;;;3.50;;
26820;SDS011;37186;51.394;5.454;2023-08-12T12:08:33;5.10;;;5.00;;
26820;SDS011;37186;51.394;5.454;2023-08-12T12:11:34;5.32;;;5.22;;
26820;SDS011;37186;51.394;5.454;2023-08-12T12:14:36;5.30;;;5.20;;
26820;SDS011;37186;51.394;5.454;2023-08-12T12:17:40;4.38;;;4.28;;
26820;SDS011;37186;51.394;5.454;2023-08-12T12:20:56;4.30;;;4.20;;
26820;SDS011;37186;51.394;5.454;2023-08-12T12:23:58;4.65;;;4.55;;
26820;SDS011;37186;51.394;5.454;2023-08-12T12:26:58;5.05;;;4.95;;
26820;SDS011;37186;51.394;5.454;2023-08-12T12:29:59;5.18;;;5.07;;
26820;SDS011;37186;51.394;5.454;2023-08-12T12:33:00;5.55;;;5.45;;
26820;SDS011;37186;51.394;5.454;2023-08-12T12:36:01;5.20;;;5.10;;
26820;SDS011;37186;51.394;5.454;2023-08-12T12:39:04;4.85;;;4.75;;
26820;SDS011;37186;51.394;5.454;2023-08-12T12:42:06;5.68;;;5.55;;
26820;SDS011;37186;51.394;5.454;2023-08-12T12:45:07;5.75;;;5.60;;
26820;SDS011;37186;51.394;5.454;2023-08-12T12:48:08;5.47;;;5.38;;
26820;SDS011;37186;51.394;5.454;2023-08-12T12:51:08;4.10;;;4.00;;
26820;SDS011;37186;51.394;5.454;2023-08-12T12:54:09;4.15;;;4.05;;
26820;SDS011;37186;51.394;5.454;2023-08-12T12:57:10;3.97;;;3.88;;
26820;SDS011;37186;51.394;5.454;2023-08-12T13:00:10;4.10;;;4.00;;
26820;SDS011;37186;51.394;5.454;2023-08-12T13:03:11;3.95;;;3.85;;
26820;SDS011;37186;51.394;5.454;2023-08-12T13:06:12;3.72;;;3.63;;
26820;SDS011;37186;51.394;5.454;2023-08-12T13:09:12;3.80;;;3.70;;
26820;SDS011;37186;51.394;5.454;2023-08-12T13:12:13;3.78;;;3.67;;
26820;SDS011;37186;51.394;5.454;2023-08-12T13:15:14;3.90;;;3.80;;
26820;SDS011;37186;51.394;5.454;2023-08-12T13:18:15;5.90;;;5.75;;
26820;SDS011;37186;51.394;5.454;2023-08-12T13:21:15;5.25;;;5.15;;
26820;SDS011;37186;51.394;5.454;2023-08-12T13:24:16;5.15;;;5.05;;
26820;SDS011;37186;51.394;5.454;2023-08-12T13:27:17;4.78;;;4.68;;
26820;SDS011;37186;51.394;5.454;2023-08-12T13:30:17;5.53;;;5.43;;
26820;SDS011;37186;51.394;5.454;2023-08-12T13:33:18;4.97;;;4.88;;
26820;SDS011;37186;51.394;5.454;2023-08-12T13:36:18;5.32;;;5.22;;
26820;SDS011;37186;51.394;5.454;2023-08-12T13:39:19;6.47;;;6.28;;
26820;SDS011;37186;51.394;5.454;2023-08-12T13:42:20;5.43;;;5.32;;
26820;SDS011;37186;51.394;5.454;2023-08-12T13:45:21;5.90;;;5.70;;
26820;SDS011;37186;51.394;5.454;2023-08-12T13:48:21;9.77;;;9.48;;
26820;SDS011;37186;51.394;5.454;2023-08-12T13:51:22;7.28;;;7.07;;
26820;SDS011;37186;51.394;5.454;2023-08-12T13:54:22;7.60;;;7.40;;
26820;SDS011;37186;51.394;5.454;2023-08-12T13:57:23;7.05;;;6.85;;
26820;SDS011;37186;51.394;5.454;2023-08-12T14:00:23;6.35;;;6.15;;
26820;SDS011;37186;51.394;5.454;2023-08-12T14:03:24;7.70;;;7.50;;
26820;SDS011;37186;51.394;5.454;2023-08-12T14:06:25;7.10;;;6.90;;
26820;SDS011;37186;51.394;5.454;2023-08-12T14:09:25;7.35;;;7.15;;
26820;SDS011;37186;51.394;5.454;2023-08-12T14:12:26;7.18;;;6.97;;
26820;SDS011;37186;51.394;5.454;2023-08-12T14:15:27;7.50;;;7.30;;
26820;SDS011;37186;51.394;5.454;2023-08-12T14:18:27;9.07;;;8.80;;
26820;SDS011;37186;51.394;5.454;2023-08-12T14:21:28;8.05;;;7.85;;
26820;SDS011;37186;51.394;5.454;2023-08-12T14:24:28;8.15;;;7.95;;
26820;SDS011;37186;51.394;5.454;2023-08-12T14:27:29;8.20;;;8.00;;
26820;SDS011;37186;51.394;5.454;2023-08-12T14:30:31;8.82;;;8.57;;
26820;SDS011;37186;51.394;5.454;2023-08-12T14:33:32;9.07;;;8.80;;
26820;SDS011;37186;51.394;5.454;2023-08-12T14:36:33;13.80;;;13.38;;
26820;SDS011;37186;51.394;5.454;2023-08-12T14:39:35;11.90;;;11.52;;
26820;SDS011;37186;51.394;5.454;2023-08-12T14:42:36;16.25;;;15.75;;
26820;SDS011;37186;51.394;5.454;2023-08-12T14:45:37;20.30;;;19.65;;
26820;SDS011;37186;51.394;5.454;2023-08-12T14:48:37;16.88;;;16.38;;
26820;SDS011;37186;51.394;5.454;2023-08-12T14:51:38;14.13;;;13.73;;
26820;SDS011;37186;51.394;5.454;2023-08-12T14:54:38;10.63;;;10.32;;
26820;SDS011;37186;51.394;5.454;2023-08-12T14:57:39;10.63;;;10.32;;
26820;SDS011;37186;51.394;5.454;2023-08-12T15:00:39;9.40;;;9.10;;
26820;SDS011;37186;51.394;5.454;2023-08-12T15:03:40;10.07;;;9.77;;
26820;SDS011;37186;51.394;5.454;2023-08-12T15:06:40;9.05;;;8.77;;
26820;SDS011;37186;51.394;5.454;2023-08-12T15:09:41;7.13;;;6.93;;
26820;SDS011;37186;51.394;5.454;2023-08-12T15:12:42;6.85;;;6.65;;
26820;SDS011;37186;51.394;5.454;2023-08-12T15:15:45;7.95;;;7.75;;
26820;SDS011;37186;51.394;5.454;2023-08-12T15:18:46;18.05;;;17.45;;
26820;SDS011;37186;51.394;5.454;2023-08-12T15:21:46;15.85;;;15.35;;
26820;SDS011;37186;51.394;5.454;2023-08-12T15:24:48;16.00;;;15.50;;
26820;SDS011;37186;51.394;5.454;2023-08-12T15:27:49;10.48;;;10.18;;
26820;SDS011;37186;51.394;5.454;2023-08-12T15:30:49;11.60;;;11.30;;
26820;SDS011;37186;51.394;5.454;2023-08-12T15:33:50;12.02;;;11.63;;
26820;SDS011;37186;51.394;5.454;2023-08-12T15:36:51;11.55;;;11.25;;
26820;SDS011;37186;51.394;5.454;2023-08-12T15:39:51;12.90;;;12.50;;
26820;SDS011;37186;51.394;5.454;2023-08-12T15:42:52;9.55;;;9.25;;
26820;SDS011;37186;51.394;5.454;2023-08-12T15:45:52;13.18;;;12.77;;
26820;SDS011;37186;51.394;5.454;2023-08-12T15:48:53;10.50;;;10.20;;
26820;SDS011;37186;51.394;5.454;2023-08-12T15:51:53;12.90;;;12.52;;
26820;SDS011;37186;51.394;5.454;2023-08-12T15:54:54;9.77;;;9.48;;
26820;SDS011;37186;51.394;5.454;2023-08-12T15:57:55;13.48;;;13.07;;
26820;SDS011;37186;51.394;5.454;2023-08-12T16:00:55;14.00;;;13.60;;
26820;SDS011;37186;51.394;5.454;2023-08-12T16:03:56;15.80;;;15.30;;
26820;SDS011;37186;51.394;5.454;2023-08-12T16:06:58;15.55;;;15.05;;
26820;SDS011;37186;51.394;5.454;2023-08-12T16:09:58;16.27;;;15.77;;
26820;SDS011;37186;51.394;5.454;2023-08-12T16:12:59;16.95;;;16.45;;
26820;SDS011;37186;51.394;5.454;2023-08-12T16:15:59;16.77;;;16.27;;
26820;SDS011;37186;51.394;5.454;2023-08-12T16:19:00;16.88;;;16.38;;
26820;SDS011;37186;51.394;5.454;2023-08-12T16:22:02;17.20;;;16.67;;
26820;SDS011;37186;51.394;5.454;2023-08-12T16:25:02;20.58;;;19.92;;
26820;SDS011;37186;51.394;5.454;2023-08-12T16:28:03;18.90;;;18.30;;
26820;SDS011;37186;51.394;5.454;2023-08-12T16:31:04;19.90;;;19.30;;
26820;SDS011;37186;51.394;5.454;2023-08-12T16:34:05;17.08;;;16.58;;
26820;SDS011;37186;51.394;5.454;2023-08-12T16:37:05;16.67;;;16.17;;
26820;SDS011;37186;51.394;5.454;2023-08-12T16:40:06;12.75;;;12.35;;
26820;SDS011;37186;51.394;5.454;2023-08-12T16:43:07;11.23;;;10.93;;
26820;SDS011;37186;51.394;5.454;2023-08-12T16:46:08;12.05;;;11.68;;
26820;SDS011;37186;51.394;5.454;2023-08-12T16:49:09;12.88;;;12.48;;
26820;SDS011;37186;51.394;5.454;2023-08-12T16:52:10;13.65;;;13.25;;
26820;SDS011;37186;51.394;5.454;2023-08-12T16:55:12;14.32;;;13.93;;
26820;SDS011;37186;51.394;5.454;2023-08-12T16:58:12;16.80;;;16.30;;
26820;SDS011;37186;51.394;5.454;2023-08-12T17:01:13;19.98;;;19.38;;
26820;SDS011;37186;51.394;5.454;2023-08-12T17:04:14;16.70;;;16.20;;
26820;SDS011;37186;51.394;5.454;2023-08-12T17:07:14;15.65;;;15.15;;
26820;SDS011;37186;51.394;5.454;2023-08-12T17:10:15;14.23;;;13.80;;
26820;SDS011;37186;51.394;5.454;2023-08-12T17:13:15;15.63;;;15.13;;
26820;SDS011;37186;51.394;5.454;2023-08-12T17:16:16;19.83;;;19.23;;
26820;SDS011;37186;51.394;5.454;2023-08-12T17:19:16;23.30;;;22.55;;
26820;SDS011;37186;51.394;5.454;2023-08-12T17:22:17;26.65;;;25.75;;
26820;SDS011;37186;51.394;5.454;2023-08-12T17:25:18;20.98;;;20.27;;
26820;SDS011;37186;51.394;5.454;2023-08-12T17:28:18;11.95;;;11.55;;
26820;SDS011;37186;51.394;5.454;2023-08-12T17:31:19;11.05;;;10.75;;
26820;SDS011;37186;51.394;5.454;2023-08-12T17:34:19;11.95;;;11.60;;
26820;SDS011;37186;51.394;5.454;2023-08-12T17:37:23;10.05;;;9.75;;
26820;SDS011;37186;51.394;5.454;2023-08-12T17:40:24;7.72;;;7.53;;
26820;SDS011;37186;51.394;5.454;2023-08-12T17:43:25;9.88;;;9.57;;
26820;SDS011;37186;51.394;5.454;2023-08-12T17:46:25;11.38;;;11.07;;
26820;SDS011;37186;51.394;5.454;2023-08-12T17:49:26;12.48;;;12.07;;
26820;SDS011;37186;51.394;5.454;2023-08-12T17:52:27;13.68;;;13.27;;
26820;SDS011;37186;51.394;5.454;2023-08-12T17:55:27;13.05;;;12.65;;
26820;SDS011;37186;51.394;5.454;2023-08-12T17:58:27;10.00;;;9.70;;
26820;SDS011;37186;51.394;5.454;2023-08-12T18:01:28;9.77;;;9.48;;
26820;SDS011;37186;51.394;5.454;2023-08-12T18:04:29;10.50;;;10.20;;
26820;SDS011;37186;51.394;5.454;2023-08-12T18:07:29;10.93;;;10.63;;
26820;SDS011;37186;51.394;5.454;2023-08-12T18:10:30;10.60;;;10.30;;
26820;SDS011;37186;51.394;5.454;2023-08-12T18:13:30;9.43;;;9.13;;
26820;SDS011;37186;51.394;5.454;2023-08-12T18:16:31;9.23;;;8.93;;
26820;SDS011;37186;51.394;5.454;2023-08-12T18:19:33;10.18;;;9.88;;